Time;durP1;ratioP1;P1;durP2;ratioP2;P2;SDS_P1;SDS_P2;PMS_P1;PMS_P2;Temp;Humidity;BMP_temperature;BMP_pressure;BME280_temperature;BME280_humidity;BME280_pressure;Samples;Min_cycle;Max_cycle;Signal;HPM_P1;HPM_P2
2021/01/05 00:01:52;;;;;;;8.65;7.25;;;11.50;65.50;;;;;;5102481;28;20264;-66
2021/01/05 00:04:18;;;;;;;11.23;7.43;;;11.50;65.60;;;;;;5102493;28;20024;-69
2021/01/05 00:06:43;;;;;;;10.60;7.50;;;11.60;65.50;;;;;;5102436;28;20043;-67
2021/01/05 00:09:09;;;;;;;9.52;7.30;;;11.60;65.40;;;;;;5102428;28;20383;-67
2021/01/05 00:11:35;;;;;;;10.45;7.88;;;11.60;65.50;;;;;;5102288;28;20047;-65
2021/01/05 00:14:00;;;;;;;10.52;7.45;;;11.60;65.50;;;;;;5102226;28;20105;-68
2021/01/05 00:16:29;;;;;;;9.80;7.18;;;11.60;65.40;;;;;;5102317;28;20087;-67
2021/01/05 00:18:54;;;;;;;11.80;7.65;;;11.60;65.50;;;;;;5102336;28;20020;-68
2021/01/05 00:21:20;;;;;;;9.32;6.78;;;11.60;65.40;;;;;;5102253;28;20335;-68
2021/01/05 00:23:46;;;;;;;10.40;7.78;;;11.60;65.40;;;;;;5102169;28;20016;-67
2021/01/05 00:26:11;;;;;;;9.27;6.55;;;11.60;65.40;;;;;;5102259;28;20059;-66
2021/01/05 00:28:37;;;;;;;9.88;7.55;;;11.60;65.40;;;;;;5102149;28;20048;-66
2021/01/05 00:31:03;;;;;;;9.95;7.43;;;11.60;65.40;;;;;;5102108;28;20312;-65
2021/01/05 00:33:28;;;;;;;10.85;7.50;;;11.60;65.30;;;;;;5102127;28;20016;-68
2021/01/05 00:35:54;;;;;;;11.52;7.47;;;11.60;65.30;;;;;;5102150;28;20043;-66
2021/01/05 00:38:20;;;;;;;10.35;7.82;;;11.60;65.40;;;;;;5102129;28;20043;-68
2021/01/05 00:40:45;;;;;;;11.07;7.07;;;11.60;65.40;;;;;;5102050;28;20304;-64
2021/01/05 00:43:11;;;;;;;11.20;7.07;;;11.60;65.40;;;;;;5102032;28;20016;-67
2021/01/05 00:45:39;;;;;;;11.30;7.60;;;11.60;65.50;;;;;;5102016;28;20028;-65
2021/01/05 00:48:06;;;;;;;8.85;6.60;;;11.60;65.40;;;;;;5101995;28;20027;-67
2021/01/05 00:50:33;;;;;;;8.95;7.20;;;11.60;65.50;;;;;;5101991;28;20051;-68
2021/01/05 00:52:59;;;;;;;10.48;8.15;;;11.60;65.40;;;;;;5104228;28;20319;-68
2021/01/05 00:55:24;;;;;;;9.25;6.80;;;11.60;65.40;;;;;;5105970;28;20028;-68
2021/01/05 00:57:50;;;;;;;8.77;7.07;;;11.60;65.50;;;;;;5105952;28;20023;-68
2021/01/05 01:00:20;;;;;;;12.65;7.85;;;11.60;65.40;;;;;;5105846;28;20019;-67
2021/01/05 01:02:48;;;;;;;11.20;8.13;;;11.60;65.50;;;;;;5105802;28;20211;-67
2021/01/05 01:05:15;;;;;;;9.50;6.90;;;11.60;65.50;;;;;;5105813;28;20035;-67
2021/01/05 01:07:40;;;;;;;9.77;7.57;;;11.60;65.40;;;;;;5105789;28;20043;-68
2021/01/05 01:10:07;;;;;;;9.55;6.93;;;11.60;65.40;;;;;;5105914;28;20020;-66
2021/01/05 01:12:32;;;;;;;9.57;7.07;;;11.60;65.40;;;;;;5105428;28;20047;-68
2021/01/05 01:14:58;;;;;;;10.77;7.32;;;11.60;65.30;;;;;;5105576;28;20020;-68
2021/01/05 01:17:25;;;;;;;8.23;6.40;;;11.60;65.30;;;;;;5105596;28;20251;-68
2021/01/05 01:19:51;;;;;;;9.52;7.13;;;11.60;65.40;;;;;;5105536;28;20260;-66
2021/01/05 01:22:19;;;;;;;9.30;7.03;;;11.60;65.50;;;;;;5105378;28;20024;-66
2021/01/05 01:24:45;;;;;;;10.02;7.18;;;11.60;65.40;;;;;;5105433;28;20043;-65
2021/01/05 01:27:11;;;;;;;9.70;7.03;;;11.60;65.40;;;;;;5105376;28;20304;-66
2021/01/05 01:29:36;;;;;;;10.35;7.35;;;11.50;65.50;;;;;;5105296;28;20035;-66
2021/01/05 01:32:02;;;;;;;9.57;6.82;;;11.50;65.50;;;;;;5105250;28;20090;-67
2021/01/05 01:34:28;;;;;;;10.38;7.15;;;11.60;65.50;;;;;;5105228;28;20023;-67
2021/01/05 01:37:14;;;;;;;9.38;6.57;;;11.60;65.40;;;;;;5105222;28;20090;-66
2021/01/05 01:39:42;;;;;;;9.55;7.07;;;11.60;65.40;;;;;;5105184;28;20308;-68
2021/01/05 01:42:09;;;;;;;10.55;7.07;;;11.60;65.40;;;;;;5105134;28;20027;-68
2021/01/05 01:44:37;;;;;;;9.55;6.95;;;11.60;65.40;;;;;;5105085;28;20027;-67
2021/01/05 01:47:21;;;;;;;10.97;7.33;;;11.60;65.50;;;;;;5105025;28;20020;-66
2021/01/05 01:49:49;;;;;;;10.48;6.50;;;11.50;65.40;;;;;;5104993;28;20098;-66
2021/01/05 01:52:37;;;;;;;10.93;7.20;;;11.60;65.50;;;;;;5104898;28;20274;-64
2021/01/05 01:55:22;;;;;;;9.80;7.47;;;11.60;65.30;;;;;;5104960;28;20024;-65
2021/01/05 01:58:05;;;;;;;8.65;6.72;;;11.60;65.40;;;;;;5104798;28;20047;-67
2021/01/05 02:00:57;;;;;;;8.77;6.75;;;11.60;65.30;;;;;;5104785;28;20226;-64
2021/01/05 02:03:32;;;;;;;9.95;7.07;;;11.60;65.40;;;;;;5120007;28;20016;-63
2021/01/05 02:06:14;;;;;;;10.10;7.40;;;11.60;65.40;;;;;;5104609;28;20020;-67
2021/01/05 02:09:16;;;;;;;10.02;6.75;;;11.50;65.40;;;;;;5104591;28;20267;-67
2021/01/05 02:12:00;;;;;;;11.85;6.97;;;11.50;65.40;;;;;;5104467;28;20062;-67
2021/01/05 02:14:45;;;;;;;8.80;6.40;;;11.50;65.50;;;;;;5104491;28;20391;-66
2021/01/05 02:17:48;;;;;;;8.88;7.07;;;11.50;65.50;;;;;;5104466;28;20024;-67
2021/01/05 02:20:27;;;;;;;9.70;7.78;;;11.60;65.40;;;;;;5104390;28;20012;-67
2021/01/05 02:23:03;;;;;;;10.93;7.72;;;11.60;65.40;;;;;;5104350;28;20038;-65
2021/01/05 02:25:37;;;;;;;10.25;6.93;;;11.60;65.50;;;;;;5104304;28;20047;-67
2021/01/05 02:28:09;;;;;;;9.02;7.30;;;11.60;65.50;;;;;;5104244;28;20031;-65
2021/01/05 02:30:42;;;;;;;12.40;7.32;;;11.50;65.40;;;;;;5104225;28;20364;-67
2021/01/05 02:33:10;;;;;;;11.27;6.88;;;11.50;65.50;;;;;;5104016;28;20032;-67
2021/01/05 02:36:27;;;;;;;10.05;7.63;;;11.60;65.50;;;;;;5104043;28;20012;-66
2021/01/05 02:39:39;;;;;;;10.15;7.45;;;11.50;65.50;;;;;;5094826;28;20221;-67
2021/01/05 02:42:48;;;;;;;10.27;7.22;;;11.50;65.50;;;;;;5103916;28;20028;-67
2021/01/05 02:45:21;;;;;;;;;;;11.50;65.50;;;;;;5104368;28;20044;-66
2021/01/05 02:48:08;;;;;;;9.40;7.30;;;11.60;65.50;;;;;;5103786;28;19904;-67
2021/01/05 02:51:12;;;;;;;9.02;6.45;;;11.60;65.60;;;;;;5103818;28;20016;-67
2021/01/05 02:54:23;;;;;;;11.27;7.75;;;11.50;65.50;;;;;;5103704;28;20016;-66
2021/01/05 02:57:20;;;;;;;11.23;7.63;;;11.50;65.40;;;;;;5098006;28;20584;-65
2021/01/05 03:00:04;;;;;;;9.77;7.70;;;11.50;65.30;;;;;;5103532;28;20016;-66
2021/01/05 03:03:00;;;;;;;9.40;6.72;;;11.50;65.40;;;;;;5103535;28;20028;-67
2021/01/05 03:05:26;;;;;;;11.90;7.30;;;11.50;65.40;;;;;;5103407;28;20024;-68
2021/01/05 03:07:53;;;;;;;11.32;7.30;;;11.50;65.50;;;;;;5103888;28;20362;-65
2021/01/05 03:10:52;;;;;;;10.18;7.80;;;11.50;65.50;;;;;;5103315;28;20216;-65
2021/01/05 03:13:47;;;;;;;9.38;6.95;;;11.50;65.40;;;;;;5103093;28;20032;-68
2021/01/05 03:16:24;;;;;;;10.43;7.82;;;11.50;65.50;;;;;;5100860;28;20059;-62
2021/01/05 03:19:03;;;;;;;10.10;7.55;;;11.50;65.50;;;;;;5103241;28;20024;-68
2021/01/05 03:21:43;;;;;;;11.63;8.05;;;11.50;65.50;;;;;;5103166;28;20043;-65
2021/01/05 03:24:10;;;;;;;13.02;7.88;;;11.50;65.40;;;;;;5103157;28;20019;-69
2021/01/05 03:26:43;;;;;;;9.93;7.70;;;11.50;65.30;;;;;;5118796;28;20064;-66
2021/01/05 03:29:11;;;;;;;9.85;7.50;;;11.60;65.30;;;;;;5103030;28;20028;-64
2021/01/05 03:31:51;;;;;;;9.23;7.03;;;11.60;65.30;;;;;;5102911;28;20339;-66
2021/01/05 03:34:18;;;;;;;8.70;6.82;;;11.60;65.40;;;;;;5102930;28;20079;-63
2021/01/05 03:36:44;;;;;;;10.88;7.65;;;11.60;65.50;;;;;;5102918;28;20293;-67
2021/01/05 03:39:11;;;;;;;10.25;7.32;;;11.50;65.50;;;;;;5102819;28;20016;-67
2021/01/05 03:41:37;;;;;;;10.45;7.38;;;11.50;65.50;;;;;;5102807;28;20037;-66
2021/01/05 03:44:03;;;;;;;11.07;8.07;;;11.50;65.50;;;;;;5102770;28;20023;-66
2021/01/05 03:46:29;;;;;;;9.77;7.28;;;11.50;65.50;;;;;;5102744;28;20016;-67
2021/01/05 03:48:56;;;;;;;8.75;6.55;;;11.50;65.50;;;;;;5102741;28;20242;-66
2021/01/05 03:51:22;;;;;;;11.98;7.95;;;11.50;65.60;;;;;;5102540;28;20334;-66
2021/01/05 03:53:48;;;;;;;11.20;8.25;;;11.50;65.50;;;;;;5102557;28;20020;-67
2021/01/05 03:56:13;;;;;;;9.15;6.85;;;11.50;65.50;;;;;;5102562;28;20027;-67
2021/01/05 03:58:39;;;;;;;10.18;7.57;;;11.50;65.50;;;;;;5102532;28;20024;-65
2021/01/05 04:01:05;;;;;;;10.70;7.57;;;11.50;65.40;;;;;;5102491;28;20491;-66
2021/01/05 04:03:31;;;;;;;10.18;7.35;;;11.50;65.50;;;;;;5102478;28;20185;-67
2021/01/05 04:05:57;;;;;;;10.98;7.90;;;11.50;65.50;;;;;;5102414;28;20031;-65
2021/01/05 04:08:23;;;;;;;10.80;7.97;;;11.50;65.30;;;;;;5102397;28;20065;-65
2021/01/05 04:10:48;;;;;;;11.35;8.05;;;11.60;65.40;;;;;;5102349;28;20024;-67
2021/01/05 04:13:14;;;;;;;9.82;7.45;;;11.50;65.40;;;;;;5102127;28;20338;-65
2021/01/05 04:15:40;;;;;;;10.13;6.68;;;11.50;65.40;;;;;;5102293;28;20027;-66
2021/01/05 04:18:06;;;;;;;11.85;7.50;;;11.50;65.50;;;;;;5118013;28;20016;-65
2021/01/05 04:20:32;;;;;;;10.57;7.50;;;11.50;65.50;;;;;;5102245;28;20050;-67
2021/01/05 04:22:59;;;;;;;12.77;8.52;;;11.50;65.60;;;;;;5102239;28;20040;-67
2021/01/05 04:25:26;;;;;;;11.25;8.27;;;11.50;65.60;;;;;;5102217;28;20039;-65
2021/01/05 04:27:52;;;;;;;9.65;7.40;;;11.50;65.60;;;;;;5101772;28;20542;-67
2021/01/05 04:30:35;;;;;;;9.45;7.55;;;11.50;65.50;;;;;;5102099;28;20019;-67
2021/01/05 04:33:06;;;;;;;11.20;8.23;;;11.50;65.40;;;;;;5102035;28;20016;-67
2021/01/05 04:35:32;;;;;;;10.57;7.45;;;11.60;65.40;;;;;;5102188;28;20069;-65
2021/01/05 04:37:58;;;;;;;11.82;8.07;;;11.50;65.30;;;;;;5101986;28;20027;-67
2021/01/05 04:40:26;;;;;;;12.00;8.57;;;11.50;65.40;;;;;;5102071;28;20122;-67
2021/01/05 04:43:11;;;;;;;11.43;8.05;;;11.50;65.50;;;;;;5102016;28;20039;-65
2021/01/05 04:46:02;;;;;;;11.90;7.80;;;11.50;65.40;;;;;;5102049;28;20028;-65
2021/01/05 04:48:41;;;;;;;10.02;7.18;;;11.50;66.10;;;;;;5101982;28;20048;-67
2021/01/05 04:51:12;;;;;;;;;;;11.50;65.60;;;;;;5102620;28;20028;-66
2021/01/05 04:54:01;;;;;;;11.27;8.05;;;11.50;65.50;;;;;;5101916;28;19931;-67
2021/01/05 04:56:45;;;;;;;15.10;8.73;;;11.50;65.50;;;;;;5101924;28;20032;-64
2021/01/05 04:59:13;;;;;;;14.65;9.15;;;11.50;65.50;;;;;;5101913;28;20481;-67
2021/01/05 05:01:41;;;;;;;13.80;9.67;;;11.50;65.50;;;;;;5102083;28;20065;-67
2021/01/05 05:04:16;;;;;;;14.20;9.07;;;11.50;65.40;;;;;;5101769;28;20261;-65
2021/01/05 05:06:51;;;;;;;13.63;9.13;;;11.50;65.30;;;;;;5101853;28;20042;-66
2021/01/05 05:09:38;;;;;;;14.07;9.00;;;11.50;65.30;;;;;;5101822;28;20101;-66
2021/01/05 05:12:25;;;;;;;12.88;9.10;;;11.50;65.50;;;;;;5101474;28;20582;-66
2021/01/05 05:15:00;;;;;;;12.52;8.95;;;11.50;65.50;;;;;;5101795;28;20023;-67
2021/01/05 05:17:44;;;;;;;17.08;10.98;;;11.50;65.60;;;;;;5101713;28;20075;-66
2021/01/05 05:20:37;;;;;;;15.48;9.77;;;11.50;65.60;;;;;;5101721;28;20028;-66
2021/01/05 05:23:27;;;;;;;13.48;9.05;;;11.50;65.60;;;;;;5101784;28;20132;-66
2021/01/05 05:26:06;;;;;;;14.75;9.48;;;11.50;65.70;;;;;;5101686;28;20024;-67
2021/01/05 05:28:54;;;;;;;14.90;9.50;;;11.50;65.70;;;;;;5101679;28;20201;-65
2021/01/05 05:31:24;;;;;;;15.05;9.70;;;11.40;65.60;;;;;;5101499;28;20027;-65
2021/01/05 05:33:54;;;;;;;13.23;9.73;;;11.50;65.70;;;;;;5101595;28;20024;-67
2021/01/05 05:36:43;;;;;;;14.50;8.38;;;11.50;65.70;;;;;;5101480;28;20076;-66
2021/01/05 05:39:50;;;;;;;15.20;8.57;;;11.50;65.60;;;;;;5102377;28;20308;-65
2021/01/05 05:42:28;;;;;;;13.10;9.05;;;11.50;65.50;;;;;;5092689;28;20346;-65
2021/01/05 05:45:01;;;;;;;13.75;8.98;;;11.50;65.40;;;;;;5105073;28;20020;-65
2021/01/05 05:47:50;;;;;;;13.20;8.25;;;11.50;65.50;;;;;;5104977;28;20027;-66
2021/01/05 05:50:30;;;;;;;14.05;8.90;;;11.50;65.60;;;;;;5104987;28;20072;-63
2021/01/05 05:53:05;;;;;;;11.85;8.05;;;11.50;65.60;;;;;;5104810;28;20020;-65
2021/01/05 05:55:42;;;;;;;12.25;8.40;;;11.50;65.60;;;;;;5104794;28;20027;-65
2021/01/05 05:58:11;;;;;;;13.45;8.85;;;11.40;65.50;;;;;;5104783;28;20008;-68
2021/01/05 06:00:40;;;;;;;12.85;8.18;;;11.50;65.60;;;;;;5104719;28;20016;-67
2021/01/05 06:03:10;;;;;;;13.02;8.38;;;11.50;65.60;;;;;;5104996;28;20020;-66
2021/01/05 06:05:37;;;;;;;14.52;9.60;;;11.50;65.60;;;;;;5104578;28;20020;-67
2021/01/05 06:08:06;;;;;;;12.35;7.97;;;11.50;65.50;;;;;;5120412;28;20042;-65
2021/01/05 06:10:32;;;;;;;;;;;11.50;65.50;;;;;;5105012;28;20032;-67
2021/01/05 06:12:58;;;;;;;16.00;9.15;;;11.40;65.50;;;;;;5104233;28;19987;-67
2021/01/05 06:15:24;;;;;;;11.80;8.07;;;11.50;65.60;;;;;;5104400;28;20020;-65
2021/01/05 06:17:50;;;;;;;14.95;9.07;;;11.50;65.40;;;;;;5104392;28;20020;-65
2021/01/05 06:20:17;;;;;;;14.98;9.15;;;11.50;65.30;;;;;;5104309;28;20077;-67
2021/01/05 06:22:44;;;;;;;13.45;9.05;;;11.50;65.40;;;;;;5104284;28;20087;-64
2021/01/05 06:25:12;;;;;;;13.70;8.98;;;11.50;65.30;;;;;;5104229;28;20020;-67
2021/01/05 06:27:37;;;;;;;11.77;8.32;;;11.50;65.50;;;;;;5104200;28;20304;-67
2021/01/05 06:30:05;;;;;;;13.45;8.32;;;11.50;65.50;;;;;;5104126;28;20035;-65
2021/01/05 06:32:31;;;;;;;15.05;9.75;;;11.50;65.60;;;;;;5103979;28;20095;-65
2021/01/05 06:34:56;;;;;;;16.33;10.15;;;11.40;65.60;;;;;;5104005;28;20016;-67
2021/01/05 06:37:22;;;;;;;14.13;9.15;;;11.40;65.50;;;;;;5104083;28;20456;-65
2021/01/05 06:39:48;;;;;;;11.90;8.23;;;11.40;65.60;;;;;;5103893;28;20012;-67
2021/01/05 06:42:15;;;;;;;14.90;9.27;;;11.40;65.50;;;;;;5103889;28;20027;-65
2021/01/05 06:44:42;;;;;;;14.27;8.45;;;11.40;65.50;;;;;;5119692;28;20047;-67
2021/01/05 06:47:08;;;;;;;13.40;9.27;;;11.40;65.50;;;;;;5103754;28;20028;-67
2021/01/05 06:49:34;;;;;;;14.10;8.70;;;11.50;65.50;;;;;;5103441;28;20077;-67
2021/01/05 06:51:59;;;;;;;14.65;8.75;;;11.40;65.40;;;;;;5103654;28;20032;-65
2021/01/05 06:54:25;;;;;;;15.45;8.65;;;11.40;65.50;;;;;;5103695;28;20358;-68
2021/01/05 06:56:55;;;;;;;14.65;9.18;;;11.40;65.40;;;;;;5103643;28;20244;-66
2021/01/05 06:59:23;;;;;;;13.07;8.55;;;11.50;65.60;;;;;;5119415;28;20016;-65
2021/01/05 07:02:09;;;;;;;14.30;8.82;;;11.50;65.60;;;;;;5103509;28;20254;-66
2021/01/05 07:04:35;;;;;;;12.45;8.48;;;11.50;65.50;;;;;;5103235;28;20095;-67
2021/01/05 07:07:02;;;;;;;16.42;9.43;;;11.50;65.60;;;;;;5103490;28;20020;-66
2021/01/05 07:09:30;;;;;;;16.30;9.45;;;11.50;65.70;;;;;;5103326;28;20028;-68
2021/01/05 07:11:56;;;;;;;13.88;8.88;;;11.50;65.50;;;;;;5103163;28;20312;-68
2021/01/05 07:14:24;;;;;;;12.60;8.15;;;11.40;65.50;;;;;;5103312;28;20091;-66
2021/01/05 07:16:50;;;;;;;13.97;9.77;;;11.40;65.50;;;;;;5103258;28;20083;-67
2021/01/05 07:19:16;;;;;;;16.38;8.75;;;11.40;65.50;;;;;;5103167;28;20016;-66
2021/01/05 07:21:43;;;;;;;12.68;8.77;;;11.40;66.10;;;;;;5103135;28;20035;-67
2021/01/05 07:24:09;;;;;;;15.25;9.35;;;11.50;65.30;;;;;;5103093;28;20023;-67
2021/01/05 07:26:36;;;;;;;14.20;9.43;;;11.50;65.20;;;;;;5118855;28;20027;-63
2021/01/05 07:29:03;;;;;;;12.40;8.25;;;11.50;65.30;;;;;;5103033;28;20024;-65
2021/01/05 07:31:29;;;;;;;15.30;9.18;;;11.50;65.30;;;;;;5102897;28;20091;-66
2021/01/05 07:33:54;;;;;;;14.05;9.55;;;11.50;65.30;;;;;;5102979;28;20065;-67
2021/01/05 07:36:34;;;;;;;14.27;9.15;;;11.50;65.30;;;;;;5102878;28;20016;-67
2021/01/05 07:39:00;;;;;;;12.52;8.60;;;11.50;65.40;;;;;;5102884;28;20084;-65
2021/01/05 07:41:26;;;;;;;11.80;8.50;;;11.40;65.40;;;;;;5102785;28;20019;-66
2021/01/05 07:43:51;;;;;;;12.27;8.43;;;11.40;65.40;;;;;;5102736;28;20055;-66
2021/01/05 07:46:17;;;;;;;14.02;9.68;;;11.40;65.30;;;;;;5102730;28;20083;-66
2021/01/05 07:48:44;;;;;;;12.82;8.98;;;11.50;65.30;;;;;;5102649;28;20020;-66
2021/01/05 07:51:10;;;;;;;15.23;9.07;;;11.50;65.30;;;;;;5102568;28;20077;-67
2021/01/05 07:53:36;;;;;;;13.43;8.85;;;11.40;65.30;;;;;;5102574;28;20215;-67
2021/01/05 07:56:03;;;;;;;14.98;9.57;;;11.40;65.30;;;;;;5102613;28;20034;-66
2021/01/05 07:58:29;;;;;;;14.55;8.70;;;11.40;65.20;;;;;;5102494;28;20075;-67
2021/01/05 08:00:54;;;;;;;13.55;8.85;;;11.50;65.10;;;;;;5102457;28;20031;-67
2021/01/05 08:03:20;;;;;;;13.98;9.18;;;11.50;65.10;;;;;;5101830;28;20079;-68
2021/01/05 08:05:46;;;;;;;16.52;10.07;;;11.50;65.10;;;;;;5102396;28;20015;-67
2021/01/05 08:08:12;;;;;;;12.73;9.02;;;11.50;65.20;;;;;;5102363;28;20091;-67
2021/01/05 08:10:39;;;;;;;17.77;10.07;;;11.40;65.30;;;;;;5102310;28;20027;-68
2021/01/05 08:13:09;;;;;;;14.30;8.68;;;11.40;65.20;;;;;;5102093;28;20047;-65
2021/01/05 08:15:35;;;;;;;14.13;8.95;;;11.40;65.30;;;;;;5102312;28;20028;-69
2021/01/05 08:18:02;;;;;;;14.05;9.25;;;11.50;65.30;;;;;;5102286;28;20016;-65
2021/01/05 08:20:29;;;;;;;14.85;9.77;;;11.40;65.20;;;;;;5102189;28;20023;-67
2021/01/05 08:22:56;;;;;;;15.27;10.15;;;11.50;65.30;;;;;;5102224;28;20031;-66
2021/01/05 08:25:22;;;;;;;12.45;8.68;;;11.40;65.30;;;;;;5102177;28;20026;-67
2021/01/05 08:27:50;;;;;;;15.75;9.50;;;11.40;65.30;;;;;;5102380;28;20208;-65
2021/01/05 08:30:25;;;;;;;14.70;9.05;;;11.40;65.30;;;;;;5102120;28;20042;-65
2021/01/05 08:32:52;;;;;;;13.63;8.93;;;11.40;65.20;;;;;;5102018;28;20325;-67
2021/01/05 08:35:22;;;;;;;11.68;8.77;;;11.50;65.20;;;;;;5117856;28;20263;-66
2021/01/05 08:37:47;;;;;;;14.23;9.57;;;11.50;65.20;;;;;;5102020;28;20248;-65
2021/01/05 08:40:20;;;;;;;17.65;9.43;;;11.50;65.90;;;;;;5102022;28;20016;-64
2021/01/05 08:42:46;;;;;;;14.20;9.38;;;11.50;65.20;;;;;;5102310;28;20050;-66
2021/01/05 08:45:13;;;;;;;14.82;8.93;;;11.40;65.20;;;;;;5101916;28;20024;-66
2021/01/05 08:47:38;;;;;;;14.88;8.73;;;11.50;65.20;;;;;;5101941;28;20027;-68
2021/01/05 08:50:07;;;;;;;10.18;7.55;;;11.50;65.20;;;;;;5101929;28;20028;-67
2021/01/05 08:52:33;;;;;;;12.73;8.40;;;11.50;65.20;;;;;;5101961;28;20052;-67
2021/01/05 08:54:58;;;;;;;14.02;9.05;;;11.50;65.20;;;;;;5101901;28;20027;-68
2021/01/05 08:57:24;;;;;;;16.58;10.52;;;11.50;65.90;;;;;;5101855;28;20024;-66
2021/01/05 08:59:50;;;;;;;12.57;8.88;;;11.50;65.90;;;;;;5101818;28;20008;-67
2021/01/05 09:02:16;;;;;;;16.33;10.38;;;11.40;65.20;;;;;;5102030;28;20020;-66
2021/01/05 09:04:41;;;;;;;18.23;9.90;;;11.40;65.30;;;;;;5101824;28;20209;-67
2021/01/05 09:07:07;;;;;;;14.65;9.45;;;11.40;65.40;;;;;;5101778;28;20023;-66
2021/01/05 09:09:33;;;;;;;14.65;9.27;;;11.40;65.30;;;;;;5101687;28;20020;-65
2021/01/05 09:11:59;;;;;;;15.90;9.25;;;11.40;65.20;;;;;;5101458;28;20028;-65
2021/01/05 09:14:26;;;;;;;14.43;9.50;;;11.50;65.20;;;;;;5104696;28;20077;-67
2021/01/05 09:16:57;;;;;;;12.98;8.65;;;11.50;65.10;;;;;;5105610;28;20289;-67
2021/01/05 09:19:23;;;;;;;14.23;9.18;;;11.50;65.10;;;;;;5105543;28;20024;-67
2021/01/05 09:21:49;;;;;;;13.23;8.77;;;11.50;65.10;;;;;;5105540;28;20039;-66
2021/01/05 09:24:14;;;;;;;14.38;8.45;;;11.50;65.30;;;;;;5105427;28;20331;-66
2021/01/05 09:26:40;;;;;;;14.32;8.77;;;11.50;65.20;;;;;;5121204;28;20042;-67
2021/01/05 09:29:07;;;;;;;17.15;9.52;;;11.50;65.20;;;;;;5105271;28;20031;-67
2021/01/05 09:31:40;;;;;;;14.70;9.40;;;11.50;65.10;;;;;;5105267;28;20039;-66
2021/01/05 09:34:06;;;;;;;14.05;9.25;;;11.50;65.10;;;;;;5105278;28;20016;-67
2021/01/05 09:36:33;;;;;;;14.55;9.32;;;11.50;65.20;;;;;;5105206;28;20031;-68
2021/01/05 09:39:00;;;;;;;14.40;9.38;;;11.50;65.20;;;;;;5105168;28;20024;-67
2021/01/05 09:41:31;;;;;;;15.07;8.73;;;11.50;65.30;;;;;;5105025;28;20022;-68
2021/01/05 09:43:57;;;;;;;13.60;8.77;;;11.40;65.30;;;;;;5105060;28;20012;-67
2021/01/05 09:46:23;;;;;;;15.50;9.55;;;11.50;65.30;;;;;;5105036;28;20031;-66
2021/01/05 09:48:50;;;;;;;14.15;9.30;;;11.40;65.20;;;;;;5104962;28;20611;-66
2021/01/05 09:51:24;;;;;;;13.55;8.40;;;11.50;65.30;;;;;;5104812;28;20101;-63
2021/01/05 09:53:50;;;;;;;12.50;8.90;;;11.50;65.20;;;;;;5104901;28;20020;-67
2021/01/05 09:56:16;;;;;;;13.88;9.35;;;11.50;65.10;;;;;;5104797;28;20148;-66
2021/01/05 09:58:42;;;;;;;11.80;8.40;;;11.50;65.10;;;;;;5104740;28;20024;-68
2021/01/05 10:01:08;;;;;;;14.13;9.38;;;11.50;65.10;;;;;;5104717;28;20054;-66
2021/01/05 10:03:34;;;;;;;15.70;8.93;;;11.50;65.10;;;;;;5104656;28;20024;-68
2021/01/05 10:05:59;;;;;;;14.95;9.85;;;11.50;65.10;;;;;;5104608;28;20026;-68
2021/01/05 10:08:25;;;;;;;15.23;9.80;;;11.50;65.10;;;;;;5104525;28;20027;-67
2021/01/05 10:10:51;;;;;;;12.68;9.13;;;11.50;65.10;;;;;;5104524;28;20042;-65
2021/01/05 10:13:17;;;;;;;13.93;9.23;;;11.50;65.20;;;;;;5104232;28;20437;-69
2021/01/05 10:15:42;;;;;;;12.80;7.97;;;11.50;65.20;;;;;;5104455;28;20457;-66
2021/01/05 10:18:08;;;;;;;13.15;8.43;;;11.50;65.10;;;;;;5104350;28;20020;-66
2021/01/05 10:20:34;;;;;;;15.07;9.75;;;11.50;65.10;;;;;;5104394;28;20026;-65
2021/01/05 10:23:00;;;;;;;12.10;8.13;;;11.50;65.10;;;;;;5104319;28;20020;-67
2021/01/05 10:25:25;;;;;;;13.43;8.60;;;11.50;65.90;;;;;;5103608;28;20023;-67
2021/01/05 10:27:51;;;;;;;16.10;9.57;;;11.50;65.20;;;;;;5104472;28;20067;-66
2021/01/05 10:30:19;;;;;;;13.82;8.63;;;11.50;65.20;;;;;;5104370;28;20258;-67
2021/01/05 10:32:45;;;;;;;10.27;7.75;;;11.50;65.20;;;;;;5104219;28;20027;-67
2021/01/05 10:35:23;;;;;;;12.10;8.30;;;11.50;65.20;;;;;;5104057;28;20013;-67
2021/01/05 10:37:49;;;;;;;14.52;9.05;;;11.40;65.20;;;;;;5104019;28;20043;-69
2021/01/05 10:40:17;;;;;;;16.77;9.85;;;11.50;65.10;;;;;;5103971;28;20031;-66
2021/01/05 10:42:45;;;;;;;13.13;8.40;;;11.50;65.20;;;;;;5103917;28;20031;-69
2021/01/05 10:45:14;;;;;;;12.82;8.02;;;11.50;65.20;;;;;;5103903;28;20102;-66
2021/01/05 10:47:40;;;;;;;;;;;11.50;65.20;;;;;;5104308;28;20024;-68
2021/01/05 10:50:10;;;;;;;12.70;8.15;;;11.50;65.20;;;;;;5103733;28;19966;-64
2021/01/05 10:52:36;;;;;;;14.45;8.32;;;11.50;65.10;;;;;;5103653;28;20027;-65
2021/01/05 10:55:04;;;;;;;15.18;9.00;;;11.50;65.20;;;;;;5103686;28;20088;-67
2021/01/05 10:57:29;;;;;;;14.52;9.50;;;11.50;65.30;;;;;;5103607;28;20043;-66
2021/01/05 10:59:55;;;;;;;13.13;8.98;;;11.40;65.20;;;;;;5103566;28;20476;-66
2021/01/05 11:02:21;;;;;;;14.98;8.98;;;11.40;65.20;;;;;;5103546;28;20026;-65
2021/01/05 11:04:47;;;;;;;13.65;9.07;;;11.40;65.10;;;;;;5103459;28;20096;-66
2021/01/05 11:07:15;;;;;;;15.75;9.57;;;11.40;65.20;;;;;;5103497;28;20094;-66
2021/01/05 11:09:42;;;;;;;15.07;9.52;;;11.50;65.40;;;;;;5103398;28;20027;-67
2021/01/05 11:12:28;;;;;;;15.27;8.98;;;11.40;65.10;;;;;;5103116;28;20035;-67
2021/01/05 11:14:54;;;;;;;17.05;10.10;;;11.50;65.20;;;;;;5103508;28;20024;-67
2021/01/05 11:17:20;;;;;;;15.32;9.52;;;11.40;65.30;;;;;;5103238;28;20367;-66
2021/01/05 11:19:46;;;;;;;16.20;10.15;;;11.40;65.30;;;;;;5103173;28;20016;-67
2021/01/05 11:22:18;;;;;;;16.85;9.88;;;11.40;65.30;;;;;;5103149;28;20073;-67
2021/01/05 11:24:45;;;;;;;16.27;9.52;;;11.40;65.30;;;;;;5103141;28;20077;-65
2021/01/05 11:27:14;;;;;;;17.13;10.65;;;11.40;65.10;;;;;;5103102;28;20020;-68
2021/01/05 11:29:40;;;;;;;17.08;9.82;;;11.50;65.20;;;;;;5103080;28;20104;-65
2021/01/05 11:32:07;;;;;;;14.98;9.60;;;11.50;65.10;;;;;;5102901;28;20032;-66
2021/01/05 11:34:34;;;;;;;15.50;9.07;;;11.40;65.10;;;;;;5102951;28;20023;-64
2021/01/05 11:37:09;;;;;;;16.75;9.55;;;11.40;65.10;;;;;;5101968;28;20147;-67
2021/01/05 11:39:42;;;;;;;15.70;9.63;;;11.50;65.30;;;;;;5102817;28;20324;-65
2021/01/05 11:42:09;;;;;;;16.50;9.65;;;11.50;65.20;;;;;;5102811;28;20038;-67
2021/01/05 11:44:35;;;;;;;13.73;9.15;;;11.40;65.20;;;;;;5102649;28;20032;-66
2021/01/05 11:47:00;;;;;;;15.90;8.90;;;11.40;65.20;;;;;;5102757;28;20181;-67
2021/01/05 11:49:27;;;;;;;12.77;8.85;;;11.40;65.10;;;;;;5102634;28;20024;-67
2021/01/05 11:51:55;;;;;;;13.32;8.82;;;11.50;65.30;;;;;;5102552;28;20028;-66
2021/01/05 11:54:22;;;;;;;13.30;8.93;;;11.50;65.20;;;;;;5102591;28;20235;-66
2021/01/05 11:56:49;;;;;;;12.02;8.85;;;11.50;65.20;;;;;;5102505;28;20040;-65
2021/01/05 11:59:15;;;;;;;15.07;8.90;;;11.50;65.30;;;;;;5102518;28;20034;-66
2021/01/05 12:01:41;;;;;;;13.07;8.77;;;11.50;65.90;;;;;;5102490;28;20019;-67
2021/01/05 12:04:09;;;;;;;13.20;9.25;;;11.50;65.10;;;;;;5102431;28;20051;-64
2021/01/05 12:06:35;;;;;;;13.75;8.80;;;11.50;65.10;;;;;;5102412;28;20015;-67
2021/01/05 12:09:01;;;;;;;12.80;9.00;;;11.50;65.00;;;;;;5102372;28;20023;-65
2021/01/05 12:11:33;;;;;;;14.88;9.05;;;11.50;65.10;;;;;;5102205;28;20031;-65
2021/01/05 12:13:59;;;;;;;13.32;8.70;;;11.50;65.00;;;;;;5102143;28;20043;-67
2021/01/05 12:16:31;;;;;;;14.23;9.18;;;11.50;65.10;;;;;;5102237;28;20030;-66
2021/01/05 12:18:59;;;;;;;13.38;8.50;;;11.50;65.00;;;;;;5102288;28;20022;-66
2021/01/05 12:21:34;;;;;;;13.10;8.93;;;11.50;65.10;;;;;;5102266;28;20032;-67
2021/01/05 12:24:00;;;;;;;11.02;8.23;;;11.50;65.20;;;;;;5102208;28;20031;-67
2021/01/05 12:26:30;;;;;;;15.23;8.50;;;11.50;65.10;;;;;;5102177;28;20012;-66
2021/01/05 12:28:58;;;;;;;15.20;8.20;;;11.50;65.10;;;;;;5102143;28;20012;-64
2021/01/05 12:31:25;;;;;;;13.35;8.93;;;11.50;65.10;;;;;;5102022;28;20012;-66
2021/01/05 12:33:50;;;;;;;14.73;10.02;;;11.50;65.10;;;;;;5117866;28;20016;-67
2021/01/05 12:36:36;;;;;;;14.63;8.85;;;11.50;65.10;;;;;;5102014;28;20019;-65
2021/01/05 12:39:03;;;;;;;12.30;8.68;;;11.50;65.10;;;;;;5102046;28;20111;-67
2021/01/05 12:41:31;;;;;;;16.27;9.70;;;11.50;65.10;;;;;;5101964;28;20027;-66
2021/01/05 12:43:57;;;;;;;16.17;9.93;;;11.50;65.10;;;;;;5102051;28;20353;-65
2021/01/05 12:46:25;;;;;;;13.52;8.77;;;11.40;65.20;;;;;;5101965;28;20290;-66
2021/01/05 12:48:50;;;;;;;11.88;7.80;;;11.50;65.20;;;;;;5104117;28;20083;-67
2021/01/05 12:51:28;;;;;;;11.60;8.73;;;11.40;65.10;;;;;;5106044;28;20023;-66
2021/01/05 12:53:54;;;;;;;13.88;8.55;;;11.40;65.10;;;;;;5106059;28;20085;-66
2021/01/05 12:56:20;;;;;;;14.27;8.20;;;11.50;65.20;;;;;;5105972;28;20034;-67